Lawai, Hawaii
Current Conditions -  °F | °C
As of 11:44 PM on Wednesday 17 Dec 2014 (Local Time) from PHLI Reporting Station
Broken Clouds Broken Clouds  
Wind Chill: 75°   Ceiling: 6000
Heat Index: 75°   Visibility: 10mi
Dew Point: 66°   Wind: 18mph
Humidity: 73%   Direction: 70°ENE
Pressure: 30.2"   Gusts: NA
Location:  21.92°N, 159.5°W
Report Text: PHLI 180944Z 07016KT 10SM FEW020 SCT027 BKN060 24/19 A3020 RMK AO2
Loading
Personal Weather Stations






























Interactive Weather Map New forecast layout! Learn more

10-Day Weather Forecast

Advertisements
Track Severe Weather on mobile